sensor_id;sensor_type;location;lat;lon;timestamp;temperature;humidity
16158;DHT22;8184;60.256;18.694;2023-07-29T00:00:18;14.50;99.90
16158;DHT22;8184;60.256;18.694;2023-07-29T00:02:46;14.50;99.90
16158;DHT22;8184;60.256;18.694;2023-07-29T00:05:16;14.50;99.90
16158;DHT22;8184;60.256;18.694;2023-07-29T00:07:44;14.50;99.90
16158;DHT22;8184;60.256;18.694;2023-07-29T00:10:13;14.40;99.90
16158;DHT22;8184;60.256;18.694;2023-07-29T00:12:41;14.40;99.90
16158;DHT22;8184;60.256;18.694;2023-07-29T00:15:09;14.40;99.90
16158;DHT22;8184;60.256;18.694;2023-07-29T00:17:45;14.40;99.90
16158;DHT22;8184;60.256;18.694;2023-07-29T00:20:14;14.80;99.90
16158;DHT22;8184;60.256;18.694;2023-07-29T00:22:44;14.30;99.90
16158;DHT22;8184;60.256;18.694;2023-07-29T00:25:12;14.40;99.90
16158;DHT22;8184;60.256;18.694;2023-07-29T00:27:41;14.10;99.90
16158;DHT22;8184;60.256;18.694;2023-07-29T00:30:10;14.20;99.90
16158;DHT22;8184;60.256;18.694;2023-07-29T00:32:38;14.20;99.90
16158;DHT22;8184;60.256;18.694;2023-07-29T00:35:06;14.10;99.90
16158;DHT22;8184;60.256;18.694;2023-07-29T00:37:35;14.10;99.90
16158;DHT22;8184;60.256;18.694;2023-07-29T00:40:07;14.00;99.90
16158;DHT22;8184;60.256;18.694;2023-07-29T00:42:38;13.90;99.90
16158;DHT22;8184;60.256;18.694;2023-07-29T00:45:06;14.10;99.90
16158;DHT22;8184;60.256;18.694;2023-07-29T00:47:35;14.10;99.90
16158;DHT22;8184;60.256;18.694;2023-07-29T00:50:03;14.10;99.90
16158;DHT22;8184;60.256;18.694;2023-07-29T00:52:32;14.00;99.90
16158;DHT22;8184;60.256;18.694;2023-07-29T00:55:00;13.90;99.90
16158;DHT22;8184;60.256;18.694;2023-07-29T00:57:30;13.80;99.90
16158;DHT22;8184;60.256;18.694;2023-07-29T00:59:58;13.80;99.90
16158;DHT22;8184;60.256;18.694;2023-07-29T01:02:26;13.80;99.90
16158;DHT22;8184;60.256;18.694;2023-07-29T01:04:57;13.90;99.90
16158;DHT22;8184;60.256;18.694;2023-07-29T01:07:27;14.00;99.90
16158;DHT22;8184;60.256;18.694;2023-07-29T01:09:59;13.90;99.90
16158;DHT22;8184;60.256;18.694;2023-07-29T01:12:32;13.90;99.90
16158;DHT22;8184;60.256;18.694;2023-07-29T01:15:05;13.90;99.90
16158;DHT22;8184;60.256;18.694;2023-07-29T01:17:37;14.00;99.90
16158;DHT22;8184;60.256;18.694;2023-07-29T01:20:09;13.90;99.90
16158;DHT22;8184;60.256;18.694;2023-07-29T01:22:37;14.00;99.90
16158;DHT22;8184;60.256;18.694;2023-07-29T01:25:08;13.90;99.90
16158;DHT22;8184;60.256;18.694;2023-07-29T01:27:36;14.00;99.90
16158;DHT22;8184;60.256;18.694;2023-07-29T01:30:05;14.00;99.90
16158;DHT22;8184;60.256;18.694;2023-07-29T01:32:35;13.90;99.90
16158;DHT22;8184;60.256;18.694;2023-07-29T01:35:07;13.90;99.90
16158;DHT22;8184;60.256;18.694;2023-07-29T01:37:37;13.90;99.90
16158;DHT22;8184;60.256;18.694;2023-07-29T01:40:08;13.80;99.90
16158;DHT22;8184;60.256;18.694;2023-07-29T01:42:37;13.80;99.90
16158;DHT22;8184;60.256;18.694;2023-07-29T01:45:05;13.80;99.90
16158;DHT22;8184;60.256;18.694;2023-07-29T01:47:33;13.70;99.90
16158;DHT22;8184;60.256;18.694;2023-07-29T01:50:02;13.70;99.90
16158;DHT22;8184;60.256;18.694;2023-07-29T01:52:32;13.70;99.90
16158;DHT22;8184;60.256;18.694;2023-07-29T01:55:00;13.60;99.90
16158;DHT22;8184;60.256;18.694;2023-07-29T01:57:30;13.50;99.90
16158;DHT22;8184;60.256;18.694;2023-07-29T01:59:58;13.40;99.90
16158;DHT22;8184;60.256;18.694;2023-07-29T02:02:26;13.50;99.90
16158;DHT22;8184;60.256;18.694;2023-07-29T02:04:55;13.60;99.90
16158;DHT22;8184;60.256;18.694;2023-07-29T02:07:23;13.60;99.90
16158;DHT22;8184;60.256;18.694;2023-07-29T02:09:53;13.40;99.90
16158;DHT22;8184;60.256;18.694;2023-07-29T02:12:21;13.50;99.90
16158;DHT22;8184;60.256;18.694;2023-07-29T02:14:51;13.40;99.90
16158;DHT22;8184;60.256;18.694;2023-07-29T02:17:19;13.30;99.90
16158;DHT22;8184;60.256;18.694;2023-07-29T02:19:47;13.40;99.90
16158;DHT22;8184;60.256;18.694;2023-07-29T02:22:16;13.50;99.90
16158;DHT22;8184;60.256;18.694;2023-07-29T02:24:44;13.40;99.90
16158;DHT22;8184;60.256;18.694;2023-07-29T02:27:12;13.40;99.90
16158;DHT22;8184;60.256;18.694;2023-07-29T02:29:40;13.30;99.90
16158;DHT22;8184;60.256;18.694;2023-07-29T02:32:10;13.40;99.90
16158;DHT22;8184;60.256;18.694;2023-07-29T02:34:38;13.50;99.90
16158;DHT22;8184;60.256;18.694;2023-07-29T02:37:06;13.00;99.90
16158;DHT22;8184;60.256;18.694;2023-07-29T02:39:35;13.40;99.90
16158;DHT22;8184;60.256;18.694;2023-07-29T02:42:03;13.30;99.90
16158;DHT22;8184;60.256;18.694;2023-07-29T02:44:31;13.10;99.90
16158;DHT22;8184;60.256;18.694;2023-07-29T02:47:00;13.20;99.90
16158;DHT22;8184;60.256;18.694;2023-07-29T02:49:29;13.20;99.90
16158;DHT22;8184;60.256;18.694;2023-07-29T02:51:57;13.30;99.90
16158;DHT22;8184;60.256;18.694;2023-07-29T02:54:26;13.30;99.90
16158;DHT22;8184;60.256;18.694;2023-07-29T02:56:54;13.40;99.90
16158;DHT22;8184;60.256;18.694;2023-07-29T02:59:22;13.50;99.90
16158;DHT22;8184;60.256;18.694;2023-07-29T03:01:51;13.40;99.90
16158;DHT22;8184;60.256;18.694;2023-07-29T03:04:20;13.50;99.90
16158;DHT22;8184;60.256;18.694;2023-07-29T03:06:50;13.50;99.90
16158;DHT22;8184;60.256;18.694;2023-07-29T03:09:18;13.50;99.90
16158;DHT22;8184;60.256;18.694;2023-07-29T03:11:46;13.60;99.90
16158;DHT22;8184;60.256;18.694;2023-07-29T03:14:14;13.50;99.90
16158;DHT22;8184;60.256;18.694;2023-07-29T03:16:42;13.30;99.90
16158;DHT22;8184;60.256;18.694;2023-07-29T03:19:11;13.30;99.90
16158;DHT22;8184;60.256;18.694;2023-07-29T03:21:43;13.30;99.90
16158;DHT22;8184;60.256;18.694;2023-07-29T03:24:14;13.40;99.90
16158;DHT22;8184;60.256;18.694;2023-07-29T03:26:42;13.50;99.90
16158;DHT22;8184;60.256;18.694;2023-07-29T03:29:12;13.40;99.90
16158;DHT22;8184;60.256;18.694;2023-07-29T03:31:40;13.40;99.90
16158;DHT22;8184;60.256;18.694;2023-07-29T03:34:09;13.50;99.90
16158;DHT22;8184;60.256;18.694;2023-07-29T03:36:38;13.80;99.90
16158;DHT22;8184;60.256;18.694;2023-07-29T03:39:09;13.80;99.90
16158;DHT22;8184;60.256;18.694;2023-07-29T03:41:38;13.80;99.90
16158;DHT22;8184;60.256;18.694;2023-07-29T03:44:06;13.70;99.90
16158;DHT22;8184;60.256;18.694;2023-07-29T03:46:35;13.70;99.90
16158;DHT22;8184;60.256;18.694;2023-07-29T03:49:06;13.80;99.90
16158;DHT22;8184;60.256;18.694;2023-07-29T03:51:35;13.90;99.90
16158;DHT22;8184;60.256;18.694;2023-07-29T03:54:03;13.80;99.90
16158;DHT22;8184;60.256;18.694;2023-07-29T03:56:31;14.00;99.90
16158;DHT22;8184;60.256;18.694;2023-07-29T03:59:04;14.00;99.90
16158;DHT22;8184;60.256;18.694;2023-07-29T04:01:32;13.90;99.90
16158;DHT22;8184;60.256;18.694;2023-07-29T04:04:01;14.20;99.90
16158;DHT22;8184;60.256;18.694;2023-07-29T04:06:29;14.10;99.90
16158;DHT22;8184;60.256;18.694;2023-07-29T04:08:57;14.00;99.90
16158;DHT22;8184;60.256;18.694;2023-07-29T04:11:25;13.90;99.90
16158;DHT22;8184;60.256;18.694;2023-07-29T04:13:53;14.10;99.90
16158;DHT22;8184;60.256;18.694;2023-07-29T04:16:23;14.20;99.90
16158;DHT22;8184;60.256;18.694;2023-07-29T04:18:51;14.30;99.90
16158;DHT22;8184;60.256;18.694;2023-07-29T04:21:19;14.50;99.90
16158;DHT22;8184;60.256;18.694;2023-07-29T04:23:48;14.40;99.90
16158;DHT22;8184;60.256;18.694;2023-07-29T04:26:16;14.40;99.90
16158;DHT22;8184;60.256;18.694;2023-07-29T04:28:44;14.40;99.90
16158;DHT22;8184;60.256;18.694;2023-07-29T04:31:12;14.50;99.90
16158;DHT22;8184;60.256;18.694;2023-07-29T04:33:42;14.30;99.90
16158;DHT22;8184;60.256;18.694;2023-07-29T04:36:10;14.40;99.90
16158;DHT22;8184;60.256;18.694;2023-07-29T04:38:38;14.60;99.90
16158;DHT22;8184;60.256;18.694;2023-07-29T04:41:06;14.50;99.90
16158;DHT22;8184;60.256;18.694;2023-07-29T04:43:35;14.60;99.90
16158;DHT22;8184;60.256;18.694;2023-07-29T04:46:06;14.70;99.90
16158;DHT22;8184;60.256;18.694;2023-07-29T04:48:34;14.80;99.90
16158;DHT22;8184;60.256;18.694;2023-07-29T04:51:03;14.80;99.90
16158;DHT22;8184;60.256;18.694;2023-07-29T04:53:31;14.90;99.90
16158;DHT22;8184;60.256;18.694;2023-07-29T04:56:10;14.90;99.90
16158;DHT22;8184;60.256;18.694;2023-07-29T04:58:41;15.10;99.90
16158;DHT22;8184;60.256;18.694;2023-07-29T05:01:09;15.00;99.90
16158;DHT22;8184;60.256;18.694;2023-07-29T05:03:37;15.00;99.90
16158;DHT22;8184;60.256;18.694;2023-07-29T05:06:08;15.30;99.90
16158;DHT22;8184;60.256;18.694;2023-07-29T05:08:36;15.20;99.90
16158;DHT22;8184;60.256;18.694;2023-07-29T05:11:05;15.20;99.90
16158;DHT22;8184;60.256;18.694;2023-07-29T05:13:34;15.30;99.90
16158;DHT22;8184;60.256;18.694;2023-07-29T05:16:02;15.30;99.90
16158;DHT22;8184;60.256;18.694;2023-07-29T05:18:38;15.40;99.90
16158;DHT22;8184;60.256;18.694;2023-07-29T05:21:13;15.60;99.90
16158;DHT22;8184;60.256;18.694;2023-07-29T05:23:42;15.70;99.90
16158;DHT22;8184;60.256;18.694;2023-07-29T05:26:10;15.60;99.90
16158;DHT22;8184;60.256;18.694;2023-07-29T05:28:38;15.90;99.90
16158;DHT22;8184;60.256;18.694;2023-07-29T05:31:12;16.10;99.90
16158;DHT22;8184;60.256;18.694;2023-07-29T05:33:40;16.40;99.90
16158;DHT22;8184;60.256;18.694;2023-07-29T05:36:08;16.20;99.90
16158;DHT22;8184;60.256;18.694;2023-07-29T05:38:38;16.10;99.90
16158;DHT22;8184;60.256;18.694;2023-07-29T05:41:09;16.50;99.90
16158;DHT22;8184;60.256;18.694;2023-07-29T05:43:37;16.60;99.90
16158;DHT22;8184;60.256;18.694;2023-07-29T05:46:07;16.90;99.90
16158;DHT22;8184;60.256;18.694;2023-07-29T05:48:35;16.90;99.90
16158;DHT22;8184;60.256;18.694;2023-07-29T05:51:04;17.10;99.90
16158;DHT22;8184;60.256;18.694;2023-07-29T05:53:35;17.20;99.90
16158;DHT22;8184;60.256;18.694;2023-07-29T05:56:05;16.80;99.90
16158;DHT22;8184;60.256;18.694;2023-07-29T05:58:33;17.40;99.90
16158;DHT22;8184;60.256;18.694;2023-07-29T06:01:01;17.30;99.90
16158;DHT22;8184;60.256;18.694;2023-07-29T06:03:29;17.50;99.90
16158;DHT22;8184;60.256;18.694;2023-07-29T06:05:58;17.70;99.90
16158;DHT22;8184;60.256;18.694;2023-07-29T06:08:26;18.10;99.90
16158;DHT22;8184;60.256;18.694;2023-07-29T06:10:55;18.30;99.90
16158;DHT22;8184;60.256;18.694;2023-07-29T06:13:24;17.90;99.90
16158;DHT22;8184;60.256;18.694;2023-07-29T06:15:52;18.20;99.90
16158;DHT22;8184;60.256;18.694;2023-07-29T06:18:20;18.20;99.90
16158;DHT22;8184;60.256;18.694;2023-07-29T06:20:48;18.50;99.90
16158;DHT22;8184;60.256;18.694;2023-07-29T06:23:17;18.80;99.90
16158;DHT22;8184;60.256;18.694;2023-07-29T06:25:45;18.00;99.90
16158;DHT22;8184;60.256;18.694;2023-07-29T06:28:13;18.50;99.90
16158;DHT22;8184;60.256;18.694;2023-07-29T06:30:43;18.60;99.90
16158;DHT22;8184;60.256;18.694;2023-07-29T06:33:11;18.80;99.90
16158;DHT22;8184;60.256;18.694;2023-07-29T06:35:41;18.80;99.90
16158;DHT22;8184;60.256;18.694;2023-07-29T06:38:12;18.90;99.90
16158;DHT22;8184;60.256;18.694;2023-07-29T06:40:40;19.20;99.90
16158;DHT22;8184;60.256;18.694;2023-07-29T06:43:09;18.50;99.90
16158;DHT22;8184;60.256;18.694;2023-07-29T06:45:42;18.60;99.90
16158;DHT22;8184;60.256;18.694;2023-07-29T06:48:11;19.00;99.90
16158;DHT22;8184;60.256;18.694;2023-07-29T06:50:39;18.80;99.90
16158;DHT22;8184;60.256;18.694;2023-07-29T06:53:08;19.10;99.90
16158;DHT22;8184;60.256;18.694;2023-07-29T06:55:37;18.80;99.90
16158;DHT22;8184;60.256;18.694;2023-07-29T06:58:08;19.40;99.90
16158;DHT22;8184;60.256;18.694;2023-07-29T07:00:37;19.60;99.90
16158;DHT22;8184;60.256;18.694;2023-07-29T07:03:06;19.30;99.90
16158;DHT22;8184;60.256;18.694;2023-07-29T07:05:35;19.60;99.90
16158;DHT22;8184;60.256;18.694;2023-07-29T07:08:03;19.30;99.90
16158;DHT22;8184;60.256;18.694;2023-07-29T07:10:31;19.10;99.90
16158;DHT22;8184;60.256;18.694;2023-07-29T07:13:00;19.40;99.90
16158;DHT22;8184;60.256;18.694;2023-07-29T07:15:29;19.70;99.90
16158;DHT22;8184;60.256;18.694;2023-07-29T07:18:00;20.20;99.90
16158;DHT22;8184;60.256;18.694;2023-07-29T07:20:30;20.30;99.90
16158;DHT22;8184;60.256;18.694;2023-07-29T07:22:58;20.30;99.90
16158;DHT22;8184;60.256;18.694;2023-07-29T07:25:26;20.00;99.90
16158;DHT22;8184;60.256;18.694;2023-07-29T07:27:57;20.20;99.90
16158;DHT22;8184;60.256;18.694;2023-07-29T07:30:25;20.10;99.90
16158;DHT22;8184;60.256;18.694;2023-07-29T07:32:56;19.80;99.90
16158;DHT22;8184;60.256;18.694;2023-07-29T07:35:24;20.40;99.90
16158;DHT22;8184;60.256;18.694;2023-07-29T07:37:54;20.70;99.90
16158;DHT22;8184;60.256;18.694;2023-07-29T07:40:22;20.20;99.90
16158;DHT22;8184;60.256;18.694;2023-07-29T07:42:50;20.30;99.90
16158;DHT22;8184;60.256;18.694;2023-07-29T07:45:19;20.00;99.90
16158;DHT22;8184;60.256;18.694;2023-07-29T07:47:49;20.30;99.90
16158;DHT22;8184;60.256;18.694;2023-07-29T07:50:19;20.40;99.90
16158;DHT22;8184;60.256;18.694;2023-07-29T07:52:47;20.50;99.90
16158;DHT22;8184;60.256;18.694;2023-07-29T07:55:16;20.80;99.90
16158;DHT22;8184;60.256;18.694;2023-07-29T07:57:45;21.00;99.90
16158;DHT22;8184;60.256;18.694;2023-07-29T08:00:14;21.10;99.90
16158;DHT22;8184;60.256;18.694;2023-07-29T08:02:43;21.00;99.90
16158;DHT22;8184;60.256;18.694;2023-07-29T08:05:12;20.50;99.90
16158;DHT22;8184;60.256;18.694;2023-07-29T08:07:40;20.60;99.90
16158;DHT22;8184;60.256;18.694;2023-07-29T08:10:10;21.00;99.90
16158;DHT22;8184;60.256;18.694;2023-07-29T08:12:40;21.30;99.90
16158;DHT22;8184;60.256;18.694;2023-07-29T08:15:08;21.60;99.90
16158;DHT22;8184;60.256;18.694;2023-07-29T08:17:36;21.40;99.90
16158;DHT22;8184;60.256;18.694;2023-07-29T08:20:04;21.60;99.90
16158;DHT22;8184;60.256;18.694;2023-07-29T08:22:33;21.60;99.90
16158;DHT22;8184;60.256;18.694;2023-07-29T08:25:04;21.30;99.90
16158;DHT22;8184;60.256;18.694;2023-07-29T08:27:33;21.00;99.90
16158;DHT22;8184;60.256;18.694;2023-07-29T08:30:04;21.00;99.90
16158;DHT22;8184;60.256;18.694;2023-07-29T08:32:32;21.30;99.90
16158;DHT22;8184;60.256;18.694;2023-07-29T08:35:00;21.50;99.90
16158;DHT22;8184;60.256;18.694;2023-07-29T08:37:29;21.60;99.90
16158;DHT22;8184;60.256;18.694;2023-07-29T08:39:58;21.70;99.90
16158;DHT22;8184;60.256;18.694;2023-07-29T08:42:31;22.50;99.90
16158;DHT22;8184;60.256;18.694;2023-07-29T08:45:08;21.70;99.90
16158;DHT22;8184;60.256;18.694;2023-07-29T08:47:39;21.50;99.90
16158;DHT22;8184;60.256;18.694;2023-07-29T08:50:08;21.70;99.90
16158;DHT22;8184;60.256;18.694;2023-07-29T08:52:41;21.80;99.90
16158;DHT22;8184;60.256;18.694;2023-07-29T08:55:12;21.60;99.90
16158;DHT22;8184;60.256;18.694;2023-07-29T08:57:40;21.50;99.90
16158;DHT22;8184;60.256;18.694;2023-07-29T09:00:13;21.80;99.90
16158;DHT22;8184;60.256;18.694;2023-07-29T09:02:44;21.80;99.90
16158;DHT22;8184;60.256;18.694;2023-07-29T09:05:12;22.40;99.90
16158;DHT22;8184;60.256;18.694;2023-07-29T09:07:42;22.70;99.90
16158;DHT22;8184;60.256;18.694;2023-07-29T09:10:11;22.50;99.90
16158;DHT22;8184;60.256;18.694;2023-07-29T09:12:41;22.70;99.90
16158;DHT22;8184;60.256;18.694;2023-07-29T09:15:09;21.70;99.90
16158;DHT22;8184;60.256;18.694;2023-07-29T09:17:39;21.90;99.90
16158;DHT22;8184;60.256;18.694;2023-07-29T09:20:09;22.00;99.90
16158;DHT22;8184;60.256;18.694;2023-07-29T09:22:37;22.60;99.90
16158;DHT22;8184;60.256;18.694;2023-07-29T09:25:10;22.20;99.90
16158;DHT22;8184;60.256;18.694;2023-07-29T09:27:45;22.70;99.90
16158;DHT22;8184;60.256;18.694;2023-07-29T09:30:16;22.50;99.90
16158;DHT22;8184;60.256;18.694;2023-07-29T09:32:45;23.00;99.90
16158;DHT22;8184;60.256;18.694;2023-07-29T09:35:15;23.10;99.90
16158;DHT22;8184;60.256;18.694;2023-07-29T09:37:44;23.30;99.90
16158;DHT22;8184;60.256;18.694;2023-07-29T09:40:13;22.90;99.90
16158;DHT22;8184;60.256;18.694;2023-07-29T09:42:47;22.60;99.90
16158;DHT22;8184;60.256;18.694;2023-07-29T09:45:19;22.80;99.90
16158;DHT22;8184;60.256;18.694;2023-07-29T09:47:49;23.70;99.90
16158;DHT22;8184;60.256;18.694;2023-07-29T09:50:23;23.20;99.90
16158;DHT22;8184;60.256;18.694;2023-07-29T09:52:51;22.90;99.90
16158;DHT22;8184;60.256;18.694;2023-07-29T09:55:21;22.50;99.90
16158;DHT22;8184;60.256;18.694;2023-07-29T09:57:52;22.50;99.90
16158;DHT22;8184;60.256;18.694;2023-07-29T10:00:21;23.50;99.90
16158;DHT22;8184;60.256;18.694;2023-07-29T10:02:52;24.00;99.90
16158;DHT22;8184;60.256;18.694;2023-07-29T10:05:21;23.80;99.90
16158;DHT22;8184;60.256;18.694;2023-07-29T10:07:50;23.60;99.90
16158;DHT22;8184;60.256;18.694;2023-07-29T10:10:19;23.80;99.90
16158;DHT22;8184;60.256;18.694;2023-07-29T10:12:50;23.90;99.90
16158;DHT22;8184;60.256;18.694;2023-07-29T10:15:18;22.90;99.90
16158;DHT22;8184;60.256;18.694;2023-07-29T10:17:48;23.10;99.90
16158;DHT22;8184;60.256;18.694;2023-07-29T10:20:19;23.60;99.90
16158;DHT22;8184;60.256;18.694;2023-07-29T10:22:47;24.40;99.90
16158;DHT22;8184;60.256;18.694;2023-07-29T10:25:16;25.10;99.90
16158;DHT22;8184;60.256;18.694;2023-07-29T10:27:47;24.20;99.90
16158;DHT22;8184;60.256;18.694;2023-07-29T10:30:23;23.30;99.90
16158;DHT22;8184;60.256;18.694;2023-07-29T10:32:52;23.50;99.90
16158;DHT22;8184;60.256;18.694;2023-07-29T10:35:22;23.70;99.90
16158;DHT22;8184;60.256;18.694;2023-07-29T10:37:54;23.10;99.90
16158;DHT22;8184;60.256;18.694;2023-07-29T10:40:23;22.20;99.90
16158;DHT22;8184;60.256;18.694;2023-07-29T10:43:00;21.90;99.90
16158;DHT22;8184;60.256;18.694;2023-07-29T10:45:36;21.90;99.90
16158;DHT22;8184;60.256;18.694;2023-07-29T10:48:09;21.40;99.90
16158;DHT22;8184;60.256;18.694;2023-07-29T10:50:39;21.10;99.90
16158;DHT22;8184;60.256;18.694;2023-07-29T10:53:07;21.50;99.90
16158;DHT22;8184;60.256;18.694;2023-07-29T10:55:35;21.80;99.90
16158;DHT22;8184;60.256;18.694;2023-07-29T10:58:04;21.60;99.90
16158;DHT22;8184;60.256;18.694;2023-07-29T11:00:35;21.70;99.90
16158;DHT22;8184;60.256;18.694;2023-07-29T11:03:05;22.00;99.90
16158;DHT22;8184;60.256;18.694;2023-07-29T11:05:50;21.70;99.90
16158;DHT22;8184;60.256;18.694;2023-07-29T11:08:22;21.40;99.90
16158;DHT22;8184;60.256;18.694;2023-07-29T11:10:59;22.10;99.90
16158;DHT22;8184;60.256;18.694;2023-07-29T11:13:31;22.30;99.90
16158;DHT22;8184;60.256;18.694;2023-07-29T11:16:01;22.10;99.90
16158;DHT22;8184;60.256;18.694;2023-07-29T11:18:30;22.10;99.90
16158;DHT22;8184;60.256;18.694;2023-07-29T11:21:00;22.40;99.90
16158;DHT22;8184;60.256;18.694;2023-07-29T11:23:31;23.60;99.90
16158;DHT22;8184;60.256;18.694;2023-07-29T11:26:00;23.60;99.90
16158;DHT22;8184;60.256;18.694;2023-07-29T11:28:29;23.50;99.90
16158;DHT22;8184;60.256;18.694;2023-07-29T11:30:57;22.90;99.90
16158;DHT22;8184;60.256;18.694;2023-07-29T11:33:27;23.20;99.90
16158;DHT22;8184;60.256;18.694;2023-07-29T11:35:55;22.90;99.90
16158;DHT22;8184;60.256;18.694;2023-07-29T11:38:26;23.20;99.90
16158;DHT22;8184;60.256;18.694;2023-07-29T11:40:58;23.20;99.90
16158;DHT22;8184;60.256;18.694;2023-07-29T11:43:27;23.20;99.90
16158;DHT22;8184;60.256;18.694;2023-07-29T11:45:55;24.00;99.90
16158;DHT22;8184;60.256;18.694;2023-07-29T11:48:26;24.30;99.90
16158;DHT22;8184;60.256;18.694;2023-07-29T11:50:56;24.30;99.90
16158;DHT22;8184;60.256;18.694;2023-07-29T11:53:30;24.10;99.90
16158;DHT22;8184;60.256;18.694;2023-07-29T11:55:58;23.80;99.90
16158;DHT22;8184;60.256;18.694;2023-07-29T11:58:27;23.40;99.90
16158;DHT22;8184;60.256;18.694;2023-07-29T12:00:55;23.60;99.90
16158;DHT22;8184;60.256;18.694;2023-07-29T12:03:24;23.50;99.90
16158;DHT22;8184;60.256;18.694;2023-07-29T12:05:53;23.50;99.90
16158;DHT22;8184;60.256;18.694;2023-07-29T12:08:22;23.70;99.90
16158;DHT22;8184;60.256;18.694;2023-07-29T12:10:52;22.80;99.90
16158;DHT22;8184;60.256;18.694;2023-07-29T12:13:23;23.40;99.90
16158;DHT22;8184;60.256;18.694;2023-07-29T12:15:51;22.90;99.90
16158;DHT22;8184;60.256;18.694;2023-07-29T12:18:29;22.70;99.90
16158;DHT22;8184;60.256;18.694;2023-07-29T12:20:57;22.50;99.90
16158;DHT22;8184;60.256;18.694;2023-07-29T12:23:25;23.40;99.90
16158;DHT22;8184;60.256;18.694;2023-07-29T12:25:57;23.80;99.90
16158;DHT22;8184;60.256;18.694;2023-07-29T12:28:25;24.40;99.90
16158;DHT22;8184;60.256;18.694;2023-07-29T12:30:54;25.20;99.90
16158;DHT22;8184;60.256;18.694;2023-07-29T12:33:30;25.00;99.90
16158;DHT22;8184;60.256;18.694;2023-07-29T12:35:59;24.70;99.90
16158;DHT22;8184;60.256;18.694;2023-07-29T12:38:30;23.00;99.90
16158;DHT22;8184;60.256;18.694;2023-07-29T12:41:00;22.50;99.90
16158;DHT22;8184;60.256;18.694;2023-07-29T12:43:28;21.80;99.90
16158;DHT22;8184;60.256;18.694;2023-07-29T12:45:57;22.70;99.90
16158;DHT22;8184;60.256;18.694;2023-07-29T12:48:25;23.00;99.90
16158;DHT22;8184;60.256;18.694;2023-07-29T12:50:53;23.00;99.90
16158;DHT22;8184;60.256;18.694;2023-07-29T12:53:21;22.60;99.90
16158;DHT22;8184;60.256;18.694;2023-07-29T12:55:50;21.90;99.90
16158;DHT22;8184;60.256;18.694;2023-07-29T12:58:22;21.20;99.90
16158;DHT22;8184;60.256;18.694;2023-07-29T13:00:52;21.20;99.90
16158;DHT22;8184;60.256;18.694;2023-07-29T13:03:21;21.50;99.90
16158;DHT22;8184;60.256;18.694;2023-07-29T13:05:49;21.10;99.90
16158;DHT22;8184;60.256;18.694;2023-07-29T13:08:17;21.40;99.90
16158;DHT22;8184;60.256;18.694;2023-07-29T13:10:45;21.60;99.90
16158;DHT22;8184;60.256;18.694;2023-07-29T13:13:13;21.20;99.90
16158;DHT22;8184;60.256;18.694;2023-07-29T13:15:43;21.60;99.90
16158;DHT22;8184;60.256;18.694;2023-07-29T13:18:11;21.50;99.90
16158;DHT22;8184;60.256;18.694;2023-07-29T13:20:39;21.10;99.90
16158;DHT22;8184;60.256;18.694;2023-07-29T13:23:07;21.10;99.90
16158;DHT22;8184;60.256;18.694;2023-07-29T13:25:36;21.60;99.90
16158;DHT22;8184;60.256;18.694;2023-07-29T13:28:04;21.50;99.90
16158;DHT22;8184;60.256;18.694;2023-07-29T13:30:32;21.70;99.90
16158;DHT22;8184;60.256;18.694;2023-07-29T13:33:02;21.40;99.90
16158;DHT22;8184;60.256;18.694;2023-07-29T13:35:30;20.90;99.90
16158;DHT22;8184;60.256;18.694;2023-07-29T13:37:59;20.70;99.90
16158;DHT22;8184;60.256;18.694;2023-07-29T13:40:27;20.40;99.90
16158;DHT22;8184;60.256;18.694;2023-07-29T13:42:55;20.20;99.90
16158;DHT22;8184;60.256;18.694;2023-07-29T13:45:23;20.30;99.90
16158;DHT22;8184;60.256;18.694;2023-07-29T13:47:51;20.60;99.90
16158;DHT22;8184;60.256;18.694;2023-07-29T13:50:21;21.30;99.90
16158;DHT22;8184;60.256;18.694;2023-07-29T13:52:49;21.20;99.90
16158;DHT22;8184;60.256;18.694;2023-07-29T13:55:17;21.40;99.90
16158;DHT22;8184;60.256;18.694;2023-07-29T13:57:46;21.90;99.90
16158;DHT22;8184;60.256;18.694;2023-07-29T14:00:14;22.30;99.90
16158;DHT22;8184;60.256;18.694;2023-07-29T14:02:42;21.30;99.90
16158;DHT22;8184;60.256;18.694;2023-07-29T14:05:10;21.00;99.90
16158;DHT22;8184;60.256;18.694;2023-07-29T14:07:41;21.40;99.90
16158;DHT22;8184;60.256;18.694;2023-07-29T14:10:09;21.40;99.90
16158;DHT22;8184;60.256;18.694;2023-07-29T14:12:38;21.70;99.90
16158;DHT22;8184;60.256;18.694;2023-07-29T14:15:09;22.10;99.90
16158;DHT22;8184;60.256;18.694;2023-07-29T14:17:37;21.80;99.90
16158;DHT22;8184;60.256;18.694;2023-07-29T14:20:06;22.20;99.90
16158;DHT22;8184;60.256;18.694;2023-07-29T14:22:35;22.00;99.90
16158;DHT22;8184;60.256;18.694;2023-07-29T14:25:05;21.80;99.90
16158;DHT22;8184;60.256;18.694;2023-07-29T14:27:34;22.20;99.90
16158;DHT22;8184;60.256;18.694;2023-07-29T14:30:03;21.90;99.90
16158;DHT22;8184;60.256;18.694;2023-07-29T14:32:31;22.20;99.90
16158;DHT22;8184;60.256;18.694;2023-07-29T14:34:59;22.10;99.90
16158;DHT22;8184;60.256;18.694;2023-07-29T14:37:30;22.40;99.90
16158;DHT22;8184;60.256;18.694;2023-07-29T14:39:58;22.40;99.90
16158;DHT22;8184;60.256;18.694;2023-07-29T14:42:40;22.50;99.90
16158;DHT22;8184;60.256;18.694;2023-07-29T14:45:11;22.00;99.90
16158;DHT22;8184;60.256;18.694;2023-07-29T14:47:39;22.60;99.90
16158;DHT22;8184;60.256;18.694;2023-07-29T14:50:08;22.40;99.90
16158;DHT22;8184;60.256;18.694;2023-07-29T14:52:45;22.20;99.90
16158;DHT22;8184;60.256;18.694;2023-07-29T14:55:14;21.50;99.90
16158;DHT22;8184;60.256;18.694;2023-07-29T14:57:51;22.30;99.90
16158;DHT22;8184;60.256;18.694;2023-07-29T15:00:20;22.70;99.90
16158;DHT22;8184;60.256;18.694;2023-07-29T15:02:55;22.70;99.90
16158;DHT22;8184;60.256;18.694;2023-07-29T15:05:32;23.00;99.90
16158;DHT22;8184;60.256;18.694;2023-07-29T15:08:01;22.70;99.90
16158;DHT22;8184;60.256;18.694;2023-07-29T15:10:29;22.80;99.90
16158;DHT22;8184;60.256;18.694;2023-07-29T15:12:59;22.80;99.90
16158;DHT22;8184;60.256;18.694;2023-07-29T15:15:30;22.90;99.90
16158;DHT22;8184;60.256;18.694;2023-07-29T15:17:59;22.90;99.90
16158;DHT22;8184;60.256;18.694;2023-07-29T15:20:27;23.00;99.90
16158;DHT22;8184;60.256;18.694;2023-07-29T15:22:55;23.10;99.90
16158;DHT22;8184;60.256;18.694;2023-07-29T15:25:24;23.20;99.90
16158;DHT22;8184;60.256;18.694;2023-07-29T15:27:52;23.50;99.90
16158;DHT22;8184;60.256;18.694;2023-07-29T15:30:26;24.00;99.90
16158;DHT22;8184;60.256;18.694;2023-07-29T15:33:01;24.00;99.90
16158;DHT22;8184;60.256;18.694;2023-07-29T15:35:31;24.40;99.90
16158;DHT22;8184;60.256;18.694;2023-07-29T15:38:04;24.20;99.90
16158;DHT22;8184;60.256;18.694;2023-07-29T15:40:32;24.10;99.90
16158;DHT22;8184;60.256;18.694;2023-07-29T15:43:00;24.70;99.90